CheckWX is a tool to help pilots better visualize weather data.  It is not intended as a substitute for an official pre-flight weather briefing.

23:40:55 UTC

KCWA TAF
Central Wisconsin Airport
Mosinee, Wisconsin, USA
KCWA 201725Z 2018/2118 26007KT P6SM SKC FM210600 24007KT P6SM SKC WS012/27035KT FM211500 23012G20KT P6SM SKC

Feb-20@
18:00 UTC

Feb-20 @ 18:00 UTC

Feb-21@
06:00 UTC

Feb-21 @ 06:00 UTC

KCWA 201725Z 2018/2118 26007KT P6SM SKC
Wind
  • 260° at 7 KTS
Cloud Levels
  • Clear skies

Feb-21@
06:00 UTC

Feb-21 @ 06:00 UTC

Feb-21@
15:00 UTC

Feb-21 @ 15:00 UTC

FM210600 24007KT P6SM SKC WS012/27035KT

From

From Standard forecast or significant change

Wind
  • 240° at 7 KTS
Cloud Levels
  • Clear skies

Feb-21@
15:00 UTC

Feb-21 @ 15:00 UTC

Feb-21@
18:00 UTC

Feb-21 @ 18:00 UTC

FM211500 23012G20KT P6SM SKC

From

From Standard forecast or significant change

Wind
  • 230° at 12 KTS
  • {Gusting to 20 KTS
Cloud Levels
  • Clear skies